createdAt,value
2016-04-06T00:00:18.335Z,993.53
2016-04-06T00:01:18.354Z,993.52
2016-04-06T00:02:18.372Z,993.54
2016-04-06T00:03:18.390Z,993.47
2016-04-06T00:04:18.409Z,993.49
2016-04-06T00:05:18.426Z,993.52
2016-04-06T00:06:18.445Z,993.52
2016-04-06T00:07:18.463Z,993.53
2016-04-06T00:08:18.481Z,993.57
2016-04-06T00:09:18.500Z,993.53
2016-04-06T00:10:18.517Z,993.57
2016-04-06T00:11:18.536Z,993.55
2016-04-06T00:12:18.555Z,993.56
2016-04-06T00:13:18.572Z,993.56
2016-04-06T00:14:18.591Z,993.57
2016-04-06T00:15:18.609Z,993.55
2016-04-06T00:16:18.627Z,993.57
2016-04-06T00:17:18.646Z,993.57
2016-04-06T00:18:18.664Z,993.56
2016-04-06T00:19:18.683Z,993.56
2016-04-06T00:20:18.701Z,993.57
2016-04-06T00:21:18.719Z,993.57
2016-04-06T00:22:18.722Z,993.57
2016-04-06T00:23:18.756Z,993.59
2016-04-06T00:24:18.774Z,993.59
2016-04-06T00:25:18.793Z,993.54
2016-04-06T00:26:18.810Z,993.6
2016-04-06T00:27:18.813Z,993.57
2016-04-06T00:28:18.848Z,993.58
2016-04-06T00:29:18.851Z,993.61
2016-04-06T00:30:18.869Z,993.6
2016-04-06T00:31:18.888Z,993.59
2016-04-06T00:32:18.905Z,993.62
2016-04-06T00:33:18.924Z,993.59
2016-04-06T00:34:18.942Z,993.65
2016-04-06T00:35:18.960Z,993.59
2016-04-06T00:36:18.978Z,993.61
2016-04-06T00:37:18.997Z,993.59
2016-04-06T00:38:19.015Z,993.6
2016-04-06T00:39:19.034Z,993.62
2016-04-06T00:40:19.052Z,993.56
2016-04-06T00:41:19.070Z,993.62
2016-04-06T00:42:19.089Z,993.6
2016-04-06T00:43:19.106Z,993.59
2016-04-06T00:44:19.125Z,993.56
2016-04-06T00:45:19.144Z,993.58
2016-04-06T00:46:19.161Z,993.55
2016-04-06T00:47:19.181Z,993.58
2016-04-06T00:48:19.198Z,993.57
2016-04-06T00:49:19.217Z,993.57
2016-04-06T00:50:19.235Z,993.5
2016-04-06T00:51:19.253Z,993.56
2016-04-06T00:52:19.272Z,993.55
2016-04-06T00:53:19.290Z,993.55
2016-04-06T00:54:19.308Z,993.56
2016-04-06T00:55:19.326Z,993.58
2016-04-06T00:56:19.345Z,993.59
2016-04-06T00:57:19.363Z,993.55
2016-04-06T00:58:19.382Z,993.56
2016-04-06T00:59:19.385Z,993.5
2016-04-06T01:00:19.402Z,993.51
2016-04-06T01:01:19.437Z,993.51
2016-04-06T01:02:19.440Z,993.49
2016-04-06T01:03:19.473Z,993.54
2016-04-06T01:04:19.476Z,993.52
2016-04-06T01:05:19.525Z,993.48
2016-04-06T01:06:19.512Z,993.5
2016-04-06T01:07:19.531Z,993.48
2016-04-06T01:08:19.549Z,993.56
2016-04-06T01:09:19.568Z,993.55
2016-04-06T01:10:19.586Z,993.58
2016-04-06T01:11:19.604Z,993.56
2016-04-06T01:12:19.622Z,993.49
2016-04-06T01:13:19.640Z,993.48
2016-04-06T01:14:19.659Z,993.52
2016-04-06T01:15:19.678Z,993.47
2016-04-06T01:16:19.696Z,993.5
2016-04-06T01:17:19.714Z,993.45
2016-04-06T01:18:19.733Z,993.46
2016-04-06T01:19:19.750Z,993.48
2016-04-06T01:20:19.769Z,993.5
2016-04-06T01:21:19.787Z,993.52
2016-04-06T01:22:19.805Z,993.46
2016-04-06T01:23:19.824Z,993.51
2016-04-06T01:24:19.826Z,993.47
2016-04-06T01:25:19.861Z,993.46
2016-04-06T01:26:19.879Z,993.46
2016-04-06T01:27:19.882Z,993.41
2016-04-06T01:28:19.900Z,993.46
2016-04-06T01:29:19.933Z,993.45
2016-04-06T01:30:19.936Z,993.45
2016-04-06T01:31:19.954Z,993.44
2016-04-06T01:32:19.973Z,993.48
2016-04-06T01:33:19.990Z,993.44
2016-04-06T01:34:20.009Z,993.41
2016-04-06T01:35:20.028Z,993.4
2016-04-06T01:36:20.046Z,993.38
2016-04-06T01:37:20.065Z,993.39
2016-04-06T01:38:20.083Z,993.41
2016-04-06T01:39:20.101Z,993.41
2016-04-06T01:40:20.120Z,993.42
2016-04-06T01:41:20.137Z,993.35
2016-04-06T01:42:20.156Z,993.39
2016-04-06T01:43:20.175Z,993.4
2016-04-06T01:44:20.209Z,993.42
2016-04-06T01:45:20.212Z,993.4
2016-04-06T01:46:20.229Z,993.39
2016-04-06T01:47:20.248Z,993.41
2016-04-06T01:48:20.250Z,993.44
2016-04-06T01:49:20.269Z,993.4
2016-04-06T01:50:20.286Z,993.4
2016-04-06T01:51:20.305Z,993.41
2016-04-06T01:52:20.324Z,993.37
2016-04-06T01:53:20.341Z,993.36
2016-04-06T01:54:20.361Z,993.36
2016-04-06T01:55:20.378Z,993.4
2016-04-06T01:56:20.397Z,993.36
2016-04-06T01:57:20.416Z,993.32
2016-04-06T01:58:20.433Z,993.38
2016-04-06T01:59:20.452Z,993.36
2016-04-06T02:00:20.470Z,993.35
2016-04-06T02:01:20.504Z,993.38
2016-04-06T02:02:20.506Z,993.35
2016-04-06T02:03:20.524Z,993.37
2016-04-06T02:04:20.543Z,993.33
2016-04-06T02:05:20.562Z,993.33
2016-04-06T02:06:20.565Z,993.31
2016-04-06T02:07:20.582Z,993.31
2016-04-06T02:08:20.609Z,993.34
2016-04-06T02:09:20.627Z,993.29
2016-04-06T02:10:20.646Z,993.3
2016-04-06T02:11:20.649Z,993.36
2016-04-06T02:12:20.682Z,993.37
2016-04-06T02:13:20.701Z,993.31
2016-04-06T02:14:20.704Z,993.33
2016-04-06T02:15:20.722Z,993.35
2016-04-06T02:16:20.741Z,993.31
2016-04-06T02:17:20.774Z,993.31
2016-04-06T02:18:20.777Z,993.29
2016-04-06T02:19:20.826Z,993.3
2016-04-06T02:20:20.829Z,993.32
2016-04-06T02:21:20.832Z,993.38
2016-04-06T02:22:20.851Z,993.37
2016-04-06T02:23:20.869Z,993.4
2016-04-06T02:24:20.887Z,993.43
2016-04-06T02:25:20.906Z,993.42
2016-04-06T02:26:20.923Z,993.39
2016-04-06T02:27:20.942Z,993.37
2016-04-06T02:28:20.960Z,993.36
2016-04-06T02:29:20.978Z,993.34
2016-04-06T02:30:20.997Z,993.36
2016-04-06T02:31:21.015Z,993.36
2016-04-06T02:32:21.034Z,993.38
2016-04-06T02:33:21.053Z,993.37
2016-04-06T02:34:21.070Z,993.31
2016-04-06T02:35:21.089Z,993.34
2016-04-06T02:36:21.091Z,993.34
2016-04-06T02:37:21.110Z,993.32
2016-04-06T02:38:21.128Z,993.3
2016-04-06T02:39:21.146Z,993.32
2016-04-06T02:40:21.164Z,993.32
2016-04-06T02:41:21.183Z,993.32
2016-04-06T02:42:21.201Z,993.35
2016-04-06T02:43:21.219Z,993.3
2016-04-06T02:44:21.238Z,993.29
2016-04-06T02:45:21.257Z,993.32
2016-04-06T02:46:21.274Z,993.28
2016-04-06T02:47:21.293Z,993.28
2016-04-06T02:48:21.310Z,993.31
2016-04-06T02:49:21.438Z,993.27
2016-04-06T02:50:21.348Z,993.27
2016-04-06T02:51:21.366Z,993.23
2016-04-06T02:52:21.385Z,993.24
2016-04-06T02:53:21.387Z,993.27
2016-04-06T02:54:21.421Z,993.25
2016-04-06T02:55:21.439Z,993.29
2016-04-06T02:56:21.442Z,993.23
2016-04-06T02:57:21.460Z,993.22
2016-04-06T02:58:21.478Z,993.22
2016-04-06T02:59:21.497Z,993.18
2016-04-06T03:00:21.515Z,993.2
2016-04-06T03:01:21.534Z,993.19
2016-04-06T03:02:21.553Z,993.18
2016-04-06T03:03:21.570Z,993.18
2016-04-06T03:04:21.683Z,993.18
2016-04-06T03:05:21.607Z,993.21
2016-04-06T03:06:21.625Z,993.16
2016-04-06T03:07:21.644Z,993.18
2016-04-06T03:08:21.661Z,993.2
2016-04-06T03:09:21.680Z,993.19
2016-04-06T03:10:21.698Z,993.21
2016-04-06T03:11:21.716Z,993.22
2016-04-06T03:12:21.735Z,993.24
2016-04-06T03:13:21.753Z,993.2
2016-04-06T03:14:21.772Z,993.22
2016-04-06T03:15:21.774Z,993.21
2016-04-06T03:16:21.793Z,993.25
2016-04-06T03:17:21.810Z,993.22
2016-04-06T03:18:21.829Z,993.24
2016-04-06T03:19:21.863Z,993.23
2016-04-06T03:20:21.866Z,993.24
2016-04-06T03:21:21.885Z,993.24
2016-04-06T03:22:21.902Z,993.25
2016-04-06T03:23:21.921Z,993.26
2016-04-06T03:24:21.939Z,993.24
2016-04-06T03:25:21.957Z,993.25
2016-04-06T03:26:21.975Z,993.25
2016-04-06T03:27:21.994Z,993.27
2016-04-06T03:28:22.012Z,993.26
2016-04-06T03:29:22.030Z,993.21
2016-04-06T03:30:22.049Z,993.25
2016-04-06T03:31:22.051Z,993.24
2016-04-06T03:32:22.070Z,993.27
2016-04-06T03:33:22.089Z,993.27
2016-04-06T03:34:22.123Z,993.29
2016-04-06T03:35:22.125Z,993.31
2016-04-06T03:36:22.144Z,993.28
2016-04-06T03:37:22.161Z,993.29
2016-04-06T03:38:22.180Z,993.28
2016-04-06T03:39:22.197Z,993.26
2016-04-06T03:40:22.216Z,993.29
2016-04-06T03:41:22.235Z,993.29
2016-04-06T03:42:22.253Z,993.3
2016-04-06T03:43:22.272Z,993.22
2016-04-06T03:44:22.290Z,993.32
2016-04-06T03:45:22.324Z,993.27
2016-04-06T03:46:22.310Z,993.27
2016-04-06T03:47:22.344Z,993.25
2016-04-06T03:48:22.347Z,993.33
2016-04-06T03:49:22.397Z,993.29
2016-04-06T03:50:22.384Z,993.29
2016-04-06T03:51:22.402Z,993.33
2016-04-06T03:52:22.421Z,993.29
2016-04-06T03:53:22.439Z,993.28
2016-04-06T03:54:22.457Z,993.33
2016-04-06T03:55:22.476Z,993.35
2016-04-06T03:56:22.493Z,993.38
2016-04-06T03:57:22.512Z,993.34
2016-04-06T03:58:22.530Z,993.38
2016-04-06T03:59:22.549Z,993.34
2016-04-06T04:00:22.551Z,993.38
2016-04-06T04:01:22.570Z,993.38
2016-04-06T04:02:22.604Z,993.36
2016-04-06T04:03:22.606Z,993.35
2016-04-06T04:04:22.719Z,993.35
2016-04-06T04:05:22.642Z,993.41
2016-04-06T04:06:22.661Z,993.35
2016-04-06T04:07:22.680Z,993.37
2016-04-06T04:08:22.698Z,993.38
2016-04-06T04:09:22.717Z,993.39
2016-04-06T04:10:22.735Z,993.35
2016-04-06T04:11:22.738Z,993.33
2016-04-06T04:12:22.755Z,993.28
2016-04-06T04:13:22.789Z,993.23
2016-04-06T04:14:22.792Z,993.34
2016-04-06T04:15:22.811Z,993.32
2016-04-06T04:16:22.829Z,993.32
2016-04-06T04:17:22.847Z,993.28
2016-04-06T04:18:22.866Z,993.31
2016-04-06T04:19:22.884Z,993.32
2016-04-06T04:20:22.902Z,993.3
2016-04-06T04:21:22.921Z,993.31
2016-04-06T04:22:22.938Z,993.35
2016-04-06T04:23:22.957Z,993.32
2016-04-06T04:24:22.976Z,993.32
2016-04-06T04:25:22.993Z,993.38
2016-04-06T04:26:22.996Z,993.34
2016-04-06T04:27:23.015Z,993.36
2016-04-06T04:28:23.048Z,993.34
2016-04-06T04:29:23.052Z,993.37
2016-04-06T04:30:23.070Z,993.36
2016-04-06T04:31:23.088Z,993.37
2016-04-06T04:32:23.106Z,993.43
2016-04-06T04:33:23.125Z,993.38
2016-04-06T04:34:23.142Z,993.43
2016-04-06T04:35:23.161Z,993.45
2016-04-06T04:36:23.180Z,993.45
2016-04-06T04:37:23.213Z,993.43
2016-04-06T04:38:23.200Z,993.47
2016-04-06T04:39:23.234Z,993.49
2016-04-06T04:40:23.253Z,993.46
2016-04-06T04:41:23.255Z,993.46
2016-04-06T04:42:23.274Z,993.48
2016-04-06T04:43:23.292Z,993.47
2016-04-06T04:44:23.310Z,993.46
2016-04-06T04:45:23.329Z,993.46
2016-04-06T04:46:23.347Z,993.47
2016-04-06T04:47:23.365Z,993.4
2016-04-06T04:48:23.384Z,993.41
2016-04-06T04:49:23.402Z,993.44
2016-04-06T04:50:23.420Z,993.42
2016-04-06T04:51:23.438Z,993.43
2016-04-06T04:52:23.457Z,993.42
2016-04-06T04:53:23.475Z,993.46
2016-04-06T04:54:23.494Z,993.47
2016-04-06T04:55:23.512Z,993.49
2016-04-06T04:56:23.515Z,993.48
2016-04-06T04:57:23.533Z,993.45
2016-04-06T04:58:23.551Z,993.47
2016-04-06T04:59:23.570Z,993.42
2016-04-06T05:00:23.588Z,993.41
2016-04-06T05:01:23.606Z,993.43
2016-04-06T05:02:23.625Z,993.43
2016-04-06T05:03:23.642Z,993.42
2016-04-06T05:04:23.661Z,993.42
2016-04-06T05:05:23.678Z,993.43
2016-04-06T05:06:23.698Z,993.44
2016-04-06T05:07:23.717Z,993.42
2016-04-06T05:08:23.734Z,993.41
2016-04-06T05:09:23.737Z,993.45
2016-04-06T05:10:23.772Z,993.42
2016-04-06T05:11:23.774Z,993.46
2016-04-06T05:12:23.792Z,993.46
2016-04-06T05:13:23.811Z,993.5
2016-04-06T05:14:23.828Z,993.45
2016-04-06T05:15:23.847Z,993.53
2016-04-06T05:16:23.865Z,993.51
2016-04-06T05:17:23.883Z,993.47
2016-04-06T05:18:23.902Z,993.5
2016-04-06T05:19:23.921Z,993.56
2016-04-06T05:20:23.923Z,993.58
2016-04-06T05:21:23.941Z,993.6
2016-04-06T05:22:23.975Z,993.59
2016-04-06T05:23:23.977Z,993.6
2016-04-06T05:24:23.996Z,993.58
2016-04-06T05:25:24.015Z,993.68
2016-04-06T05:26:24.032Z,993.66
2016-04-06T05:27:24.051Z,993.69
2016-04-06T05:28:24.065Z,993.7
2016-04-06T05:29:24.082Z,993.7
2016-04-06T05:30:24.101Z,993.74
2016-04-06T05:31:24.120Z,993.7
2016-04-06T05:32:24.138Z,993.71
2016-04-06T05:33:24.156Z,993.78
2016-04-06T05:34:24.174Z,993.77
2016-04-06T05:35:24.193Z,993.79
2016-04-06T05:36:24.212Z,993.79
2016-04-06T05:37:24.229Z,993.77
2016-04-06T05:38:24.247Z,993.76
2016-04-06T05:39:24.267Z,993.73
2016-04-06T05:40:24.284Z,993.79
2016-04-06T05:41:24.287Z,993.71
2016-04-06T05:42:24.321Z,993.73
2016-04-06T05:43:24.323Z,993.8
2016-04-06T05:44:24.342Z,993.83
2016-04-06T05:45:24.361Z,993.85
2016-04-06T05:46:24.378Z,993.87
2016-04-06T05:47:24.397Z,993.8
2016-04-06T05:48:24.430Z,993.88
2016-04-06T05:49:24.433Z,993.9
2016-04-06T05:50:24.452Z,993.91
2016-04-06T05:51:24.469Z,993.89
2016-04-06T05:52:24.488Z,993.86
2016-04-06T05:53:24.491Z,993.9
2016-04-06T05:54:24.510Z,993.95
2016-04-06T05:55:24.527Z,993.91
2016-04-06T05:56:24.562Z,993.92
2016-04-06T05:57:24.564Z,993.93
2016-04-06T05:58:24.583Z,993.99
2016-04-06T05:59:24.602Z,993.94
2016-04-06T06:00:24.634Z,993.99
2016-04-06T06:01:24.638Z,993.99
2016-04-06T06:02:24.656Z,994.02
2016-04-06T06:03:24.685Z,994.03
2016-04-06T06:04:24.749Z,994.06
2016-04-06T06:05:24.813Z,994.07
2016-04-06T06:06:24.876Z,994.06
2016-04-06T06:07:24.941Z,994.02
2016-04-06T06:08:24.996Z,994.06
2016-04-06T06:09:25.031Z,994.09
2016-04-06T06:10:25.066Z,994.03
2016-04-06T06:11:25.099Z,994.09
2016-04-06T06:12:25.135Z,994.12
2016-04-06T06:13:25.167Z,994.06
2016-04-06T06:14:25.175Z,994.11
2016-04-06T06:15:25.215Z,994.11
2016-04-06T06:16:25.223Z,994.14
2016-04-06T06:17:25.246Z,994.16
2016-04-06T06:18:25.270Z,994.18
2016-04-06T06:19:25.290Z,994.11
2016-04-06T06:20:25.310Z,994.2
2016-04-06T06:21:25.331Z,994.17
2016-04-06T06:22:25.352Z,994.21
2016-04-06T06:23:25.372Z,994.23
2016-04-06T06:24:25.392Z,994.24
2016-04-06T06:25:25.411Z,994.26
2016-04-06T06:26:25.414Z,994.24
2016-04-06T06:27:25.433Z,994.2
2016-04-06T06:28:25.453Z,994.23
2016-04-06T06:29:25.471Z,994.25
2016-04-06T06:30:25.506Z,994.22
2016-04-06T06:31:25.509Z,994.22
2016-04-06T06:32:25.527Z,994.23
2016-04-06T06:33:25.546Z,994.21
2016-04-06T06:34:25.563Z,994.19
2016-04-06T06:35:25.582Z,994.24
2016-04-06T06:36:25.601Z,994.21
2016-04-06T06:37:25.619Z,994.22
2016-04-06T06:38:25.637Z,994.22
2016-04-06T06:39:25.656Z,994.22
2016-04-06T06:40:25.674Z,994.29
2016-04-06T06:41:25.693Z,994.29
2016-04-06T06:42:25.710Z,994.25
2016-04-06T06:43:25.713Z,994.31
2016-04-06T06:44:25.748Z,994.25
2016-04-06T06:45:25.751Z,994.29
2016-04-06T06:46:25.768Z,994.29
2016-04-06T06:47:25.786Z,994.31
2016-04-06T06:48:25.805Z,994.27
2016-04-06T06:49:25.823Z,994.32
2016-04-06T06:50:25.842Z,994.28
2016-04-06T06:51:25.859Z,994.28
2016-04-06T06:52:25.878Z,994.27
2016-04-06T06:53:25.897Z,994.2
2016-04-06T06:54:25.914Z,994.27
2016-04-06T06:55:25.949Z,994.24
2016-04-06T06:56:25.952Z,994.25
2016-04-06T06:57:25.986Z,994.31
2016-04-06T06:58:26.003Z,994.27
2016-04-06T06:59:26.005Z,994.25
2016-04-06T07:00:26.024Z,994.24
2016-04-06T07:01:26.044Z,994.3
2016-04-06T07:02:26.061Z,994.32
2016-04-06T07:03:26.080Z,994.34
2016-04-06T07:04:26.098Z,994.33
2016-04-06T07:05:26.116Z,994.31
2016-04-06T07:06:26.135Z,994.36
2016-04-06T07:07:26.137Z,994.3
2016-04-06T07:08:26.171Z,994.33
2016-04-06T07:09:26.190Z,994.39
2016-04-06T07:10:26.193Z,994.39
2016-04-06T07:11:26.210Z,994.39
2016-04-06T07:12:26.229Z,994.37
2016-04-06T07:13:26.247Z,994.39
2016-04-06T07:14:26.265Z,994.37
2016-04-06T07:15:26.283Z,994.38
2016-04-06T07:16:26.301Z,994.43
2016-04-06T07:17:26.320Z,994.48
2016-04-06T07:18:26.339Z,994.44
2016-04-06T07:19:26.356Z,994.45
2016-04-06T07:20:26.376Z,994.46
2016-04-06T07:21:26.394Z,994.44
2016-04-06T07:22:26.412Z,994.48
2016-04-06T07:23:26.446Z,994.5
2016-04-06T07:24:26.449Z,994.58
2016-04-06T07:25:26.467Z,994.61
2016-04-06T07:26:26.485Z,994.56
2016-04-06T07:27:26.503Z,994.62
2016-04-06T07:28:26.522Z,994.6
2016-04-06T07:29:26.540Z,994.63
2016-04-06T07:30:26.558Z,994.64
2016-04-06T07:31:26.577Z,994.71
2016-04-06T07:32:26.594Z,994.65
2016-04-06T07:33:26.614Z,994.63
2016-04-06T07:34:26.632Z,994.64
2016-04-06T07:35:26.650Z,994.65
2016-04-06T07:36:26.668Z,994.6
2016-04-06T07:37:26.702Z,994.59
2016-04-06T07:38:26.705Z,994.65
2016-04-06T07:39:26.724Z,994.61
2016-04-06T07:40:26.741Z,994.6
2016-04-06T07:41:26.760Z,994.58
2016-04-06T07:42:26.779Z,994.53
2016-04-06T07:43:26.796Z,994.55
2016-04-06T07:44:26.815Z,994.61
2016-04-06T07:45:26.834Z,994.65
2016-04-06T07:46:26.852Z,994.67
2016-04-06T07:47:26.870Z,994.62
2016-04-06T07:48:26.888Z,994.67
2016-04-06T07:49:26.907Z,994.65
2016-04-06T07:50:26.925Z,994.68
2016-04-06T07:51:26.943Z,994.66
2016-04-06T07:52:26.961Z,994.68
2016-04-06T07:53:26.980Z,994.68
2016-04-06T07:54:26.998Z,994.67
2016-04-06T07:55:27.016Z,994.75
2016-04-06T07:56:27.034Z,994.78
2016-04-06T07:57:27.053Z,994.8
2016-04-06T07:58:27.072Z,994.74
2016-04-06T07:59:27.089Z,994.74
2016-04-06T08:00:27.108Z,994.68
2016-04-06T08:01:27.126Z,994.74
2016-04-06T08:02:27.145Z,994.7
2016-04-06T08:03:27.163Z,994.82
2016-04-06T08:04:27.180Z,994.78
2016-04-06T08:05:27.199Z,994.79
2016-04-06T08:06:27.218Z,994.8
2016-04-06T08:07:27.236Z,994.8
2016-04-06T08:08:27.255Z,994.71
2016-04-06T08:09:27.273Z,994.83
2016-04-06T08:10:27.322Z,994.75
2016-04-06T08:11:27.310Z,994.78
2016-04-06T08:12:27.343Z,994.81
2016-04-06T08:13:27.346Z,994.8
2016-04-06T08:14:27.365Z,994.85
2016-04-06T08:15:27.398Z,994.89
2016-04-06T08:16:27.417Z,994.8
2016-04-06T08:17:27.434Z,994.79
2016-04-06T08:18:27.453Z,994.79
2016-04-06T08:19:27.471Z,994.73
2016-04-06T08:20:27.536Z,994.71
2016-04-06T08:21:27.508Z,994.72
2016-04-06T08:22:27.526Z,994.66
2016-04-06T08:23:27.545Z,994.64
2016-04-06T08:24:27.564Z,994.65
2016-04-06T08:25:27.581Z,994.6
2016-04-06T08:26:27.600Z,994.65
2016-04-06T08:27:27.617Z,994.63
2016-04-06T08:28:27.637Z,994.59
2016-04-06T08:29:27.655Z,994.56
2016-04-06T08:30:27.673Z,994.6
2016-04-06T08:31:27.691Z,994.58
2016-04-06T08:32:27.710Z,994.62
2016-04-06T08:33:27.728Z,994.6
2016-04-06T08:34:27.762Z,994.65
2016-04-06T08:35:27.765Z,994.66
2016-04-06T08:36:27.799Z,994.65
2016-04-06T08:37:27.816Z,994.72
2016-04-06T08:38:27.835Z,994.66
2016-04-06T08:39:27.854Z,994.61
2016-04-06T08:40:27.872Z,994.69
2016-04-06T08:41:27.890Z,994.65
2016-04-06T08:42:27.908Z,994.68
2016-04-06T08:43:27.943Z,994.69
2016-04-06T08:44:27.961Z,994.67
2016-04-06T08:45:27.979Z,994.71
2016-04-06T08:46:27.998Z,994.7
2016-04-06T08:47:28.016Z,994.69
2016-04-06T08:48:28.034Z,994.69
2016-04-06T08:49:28.051Z,994.73
2016-04-06T08:50:28.071Z,994.73
2016-04-06T08:51:28.089Z,994.64
2016-04-06T08:52:28.123Z,994.59
2016-04-06T08:53:28.142Z,994.59
2016-04-06T08:54:28.159Z,994.67
2016-04-06T08:55:28.178Z,994.61
2016-04-06T08:56:28.196Z,994.67
2016-04-06T08:57:28.214Z,994.62
2016-04-06T08:58:28.233Z,994.62
2016-04-06T08:59:28.250Z,994.58
2016-04-06T09:00:28.270Z,994.64
2016-04-06T09:01:28.288Z,994.6
2016-04-06T09:02:28.322Z,994.63
2016-04-06T09:03:28.339Z,994.64
2016-04-06T09:04:28.358Z,994.62
2016-04-06T09:05:28.377Z,994.58
2016-04-06T09:06:28.395Z,994.54
2016-04-06T09:07:28.413Z,994.65
2016-04-06T09:08:28.432Z,994.57
2016-04-06T09:09:28.465Z,994.54
2016-04-06T09:10:28.483Z,994.55
2016-04-06T09:11:28.502Z,994.66
2016-04-06T09:12:28.520Z,994.56
2016-04-06T09:13:28.539Z,994.66
2016-04-06T09:14:28.557Z,994.63
2016-04-06T09:15:28.575Z,994.54
2016-04-06T09:16:28.593Z,994.6
2016-04-06T09:17:28.612Z,994.59
2016-04-06T09:18:28.646Z,994.62
2016-04-06T09:19:28.664Z,994.57
2016-04-06T09:20:28.683Z,994.54
2016-04-06T09:21:28.701Z,994.57
2016-04-06T09:22:28.719Z,994.5
2016-04-06T09:23:28.738Z,994.52
2016-04-06T09:24:28.771Z,994.49
2016-04-06T09:25:28.790Z,994.5
2016-04-06T09:26:28.808Z,994.41
2016-04-06T09:27:28.826Z,994.36
2016-04-06T09:28:28.845Z,994.37
2016-04-06T09:29:28.863Z,994.3
2016-04-06T09:30:28.881Z,994.3
2016-04-06T09:31:28.915Z,994.27
2016-04-06T09:32:28.934Z,994.31
2016-04-06T09:33:28.936Z,994.26
2016-04-06T09:34:28.970Z,994.29
2016-04-06T09:35:28.989Z,994.27
2016-04-06T09:36:29.022Z,994.26
2016-04-06T09:37:29.025Z,994.27
2016-04-06T09:38:29.044Z,994.23
2016-04-06T09:39:29.061Z,994.31
2016-04-06T09:40:29.080Z,994.3
2016-04-06T09:41:29.114Z,994.29
2016-04-06T09:42:29.121Z,994.31
2016-04-06T09:43:29.171Z,994.28
2016-04-06T09:44:29.158Z,994.25
2016-04-06T09:45:29.185Z,994.33
2016-04-06T09:46:29.203Z,994.27
2016-04-06T09:47:29.238Z,994.24
2016-04-06T09:48:29.240Z,994.29
2016-04-06T09:49:29.275Z,994.31
2016-04-06T09:50:29.277Z,994.31
2016-04-06T09:51:29.296Z,994.31
2016-04-06T09:52:29.329Z,994.25
2016-04-06T09:53:29.347Z,994.35
2016-04-06T09:54:29.366Z,994.35
2016-04-06T09:55:29.399Z,994.34
2016-04-06T09:56:29.402Z,994.31
2016-04-06T09:57:29.421Z,994.34
2016-04-06T09:58:29.439Z,994.39
2016-04-06T09:59:29.457Z,994.32
2016-04-06T10:00:29.490Z,994.33
2016-04-06T10:01:29.510Z,994.27
2016-04-06T10:02:29.528Z,994.3
2016-04-06T10:03:29.546Z,994.37
2016-04-06T10:04:29.565Z,994.27
2016-04-06T10:05:29.583Z,994.26
2016-04-06T10:06:29.601Z,994.18
2016-04-06T10:07:29.620Z,994.2
2016-04-06T10:08:29.637Z,994.16
2016-04-06T10:09:29.656Z,994.18
2016-04-06T10:10:29.690Z,994.2
2016-04-06T10:11:29.708Z,994.06
2016-04-06T10:12:29.727Z,994.03
2016-04-06T10:13:29.745Z,994.1
2016-04-06T10:14:29.763Z,994.07
2016-04-06T10:15:29.781Z,994.04
2016-04-06T10:16:29.800Z,994.08
2016-04-06T10:17:29.819Z,994.17
2016-04-06T10:18:29.852Z,994.15
2016-04-06T10:19:29.871Z,994.17
2016-04-06T10:20:29.889Z,994.12
2016-04-06T10:21:29.907Z,994.08
2016-04-06T10:22:29.925Z,994.08
2016-04-06T10:23:29.944Z,994.05
2016-04-06T10:24:29.962Z,994.08
2016-04-06T10:25:29.980Z,994.05
2016-04-06T10:26:30.015Z,994.05
2016-04-06T10:27:30.033Z,994.03
2016-04-06T10:28:30.051Z,993.91
2016-04-06T10:29:30.068Z,993.97
2016-04-06T10:30:30.088Z,993.91
2016-04-06T10:31:30.106Z,993.98
2016-04-06T10:32:30.124Z,993.97
2016-04-06T10:33:30.142Z,993.91
2016-04-06T10:34:30.177Z,993.95
2016-04-06T10:35:30.195Z,994.06
2016-04-06T10:36:30.212Z,993.96
2016-04-06T10:37:30.231Z,993.92
2016-04-06T10:38:30.250Z,993.94
2016-04-06T10:39:30.268Z,993.95
2016-04-06T10:40:30.302Z,993.97
2016-04-06T10:41:30.320Z,993.9
2016-04-06T10:42:30.339Z,993.81
2016-04-06T10:43:30.356Z,993.8
2016-04-06T10:44:30.375Z,993.81
2016-04-06T10:45:30.409Z,993.97
2016-04-06T10:46:30.412Z,993.91
2016-04-06T10:47:30.447Z,993.8
2016-04-06T10:48:30.464Z,993.82
2016-04-06T10:49:30.482Z,993.78
2016-04-06T10:50:30.500Z,993.76
2016-04-06T10:51:30.519Z,993.79
2016-04-06T10:52:30.553Z,993.75
2016-04-06T10:53:30.571Z,993.72
2016-04-06T10:54:30.590Z,993.76
2016-04-06T10:55:30.608Z,993.81
2016-04-06T10:56:30.626Z,993.7
2016-04-06T10:57:30.644Z,993.71
2016-04-06T10:58:30.679Z,993.73
2016-04-06T10:59:30.712Z,993.66
2016-04-06T11:00:30.715Z,993.66
2016-04-06T11:01:30.733Z,993.52
2016-04-06T11:02:30.752Z,993.5
2016-04-06T11:03:30.770Z,993.52
2016-04-06T11:04:30.787Z,993.67
2016-04-06T11:05:30.806Z,993.49
2016-04-06T11:06:30.841Z,993.51
2016-04-06T11:07:30.859Z,993.49
2016-04-06T11:08:30.877Z,993.52
2016-04-06T11:09:30.896Z,993.56
2016-04-06T11:10:30.914Z,993.51
2016-04-06T11:11:30.931Z,993.49
2016-04-06T11:12:30.951Z,993.51
2016-04-06T11:13:30.970Z,993.6
2016-04-06T11:14:31.003Z,993.49
2016-04-06T11:15:31.021Z,993.48
2016-04-06T11:16:31.039Z,993.45
2016-04-06T11:17:31.058Z,993.43
2016-04-06T11:18:31.075Z,993.3
2016-04-06T11:19:31.094Z,993.34
2016-04-06T11:20:31.113Z,993.37
2016-04-06T11:21:31.147Z,993.29
2016-04-06T11:22:31.165Z,993.34
2016-04-06T11:23:31.183Z,993.3
2016-04-06T11:24:31.202Z,993.37
2016-04-06T11:25:31.235Z,993.35
2016-04-06T11:26:31.238Z,993.26
2016-04-06T11:27:31.272Z,993.24
2016-04-06T11:28:31.290Z,993.33
2016-04-06T11:29:31.309Z,993.31
2016-04-06T11:30:31.326Z,993.35
2016-04-06T11:31:31.345Z,993.21
2016-04-06T11:32:31.363Z,993.2
2016-04-06T11:33:31.413Z,993.27
2016-04-06T11:34:31.432Z,993.3
2016-04-06T11:35:31.434Z,993.1
2016-04-06T11:36:31.453Z,993.2
2016-04-06T11:37:31.471Z,993.11
2016-04-06T11:38:31.489Z,993.1
2016-04-06T11:39:31.523Z,993.15
2016-04-06T11:40:31.541Z,993.07
2016-04-06T11:41:31.560Z,993.23
2016-04-06T11:42:31.594Z,993.09
2016-04-06T11:43:31.612Z,993.02
2016-04-06T11:44:31.630Z,993.05
2016-04-06T11:45:31.648Z,993.07
2016-04-06T11:46:31.667Z,993.07
2016-04-06T11:47:31.701Z,993.06
2016-04-06T11:48:31.719Z,993.09
2016-04-06T11:49:31.738Z,992.94
2016-04-06T11:50:31.756Z,992.94
2016-04-06T11:51:31.774Z,993.03
2016-04-06T11:52:31.808Z,993.09
2016-04-06T11:53:31.826Z,992.9
2016-04-06T11:54:31.844Z,992.92
2016-04-06T11:55:31.863Z,993.07
2016-04-06T11:56:31.882Z,993.01
2016-04-06T11:57:31.900Z,993.04
2016-04-06T11:58:31.933Z,993.04
2016-04-06T11:59:31.968Z,992.96
2016-04-06T12:00:31.985Z,992.91
2016-04-06T12:01:31.988Z,992.95
2016-04-06T12:02:32.023Z,992.96
2016-04-06T12:03:32.041Z,992.96
2016-04-06T12:04:32.059Z,992.91
2016-04-06T12:05:32.093Z,992.88
2016-04-06T12:06:32.111Z,992.86
2016-04-06T12:07:32.122Z,992.86
2016-04-06T12:08:32.139Z,992.81
2016-04-06T12:09:32.172Z,992.71
2016-04-06T12:10:32.191Z,992.71
2016-04-06T12:11:32.210Z,992.59
2016-04-06T12:12:32.228Z,992.59
2016-04-06T12:13:32.262Z,992.67
2016-04-06T12:14:32.280Z,992.65
2016-04-06T12:15:32.299Z,992.64
2016-04-06T12:16:32.316Z,992.69
2016-04-06T12:17:32.337Z,992.78
2016-04-06T12:18:32.371Z,992.68
2016-04-06T12:19:32.390Z,992.66
2016-04-06T12:20:32.408Z,992.68
2016-04-06T12:21:32.426Z,992.71
2016-04-06T12:22:32.444Z,992.73
2016-04-06T12:23:32.462Z,992.75
2016-04-06T12:24:32.497Z,992.76
2016-04-06T12:25:32.515Z,992.8
2016-04-06T12:26:32.533Z,992.82
2016-04-06T12:27:32.552Z,992.79
2016-04-06T12:28:32.569Z,992.68
2016-04-06T12:29:32.603Z,992.65
2016-04-06T12:30:32.622Z,992.62
2016-04-06T12:31:32.641Z,992.51